sensor_id;sensor_type;location;lat;lon;timestamp;pressure;altitude;pressure_sealevel;temperature;humidity
73297;BME280;61524;50.938;11.396;2022-08-19T00:00:07;98555.44;;;18.33;94.17
73297;BME280;61524;50.938;11.396;2022-08-19T00:02:34;98574.06;;;18.34;94.63
73297;BME280;61524;50.938;11.396;2022-08-19T00:04:59;98575.16;;;18.33;94.44
73297;BME280;61524;50.938;11.396;2022-08-19T00:07:25;98585.69;;;18.35;94.21
73297;BME280;61524;50.938;11.396;2022-08-19T00:09:50;98600.13;;;18.30;94.42
73297;BME280;61524;50.938;11.396;2022-08-19T00:12:16;98602.41;;;18.37;94.52
73297;BME280;61524;50.938;11.396;2022-08-19T00:14:41;98590.78;;;18.36;94.02
73297;BME280;61524;50.938;11.396;2022-08-19T00:17:07;98577.75;;;18.39;94.46
73297;BME280;61524;50.938;11.396;2022-08-19T00:19:34;98551.63;;;18.34;94.97
73297;BME280;61524;50.938;11.396;2022-08-19T00:22:00;98583.13;;;18.30;95.09
73297;BME280;61524;50.938;11.396;2022-08-19T00:24:27;98602.06;;;18.30;94.63
73297;BME280;61524;50.938;11.396;2022-08-19T00:26:54;98620.66;;;18.31;94.83
73297;BME280;61524;50.938;11.396;2022-08-19T00:29:22;98619.34;;;18.29;94.44
73297;BME280;61524;50.938;11.396;2022-08-19T00:31:49;98641.31;;;18.27;95.08
73297;BME280;61524;50.938;11.396;2022-08-19T00:34:16;98657.84;;;18.26;95.09
73297;BME280;61524;50.938;11.396;2022-08-19T00:36:42;98641.75;;;18.21;95.33
73297;BME280;61524;50.938;11.396;2022-08-19T00:39:08;98656.84;;;18.22;95.10
73297;BME280;61524;50.938;11.396;2022-08-19T00:41:33;98661.91;;;18.15;95.31
73297;BME280;61524;50.938;11.396;2022-08-19T00:44:14;98683.53;;;18.15;95.38
73297;BME280;61524;50.938;11.396;2022-08-19T00:46:43;98692.97;;;18.03;96.20
73297;BME280;61524;50.938;11.396;2022-08-19T00:49:13;98699.97;;;18.04;96.03
73297;BME280;61524;50.938;11.396;2022-08-19T00:51:41;98716.00;;;18.01;96.33
73297;BME280;61524;50.938;11.396;2022-08-19T00:54:08;98716.19;;;18.04;96.07
73297;BME280;61524;50.938;11.396;2022-08-19T00:56:34;98724.22;;;17.96;96.58
73297;BME280;61524;50.938;11.396;2022-08-19T00:59:01;98725.00;;;17.96;96.68
73297;BME280;61524;50.938;11.396;2022-08-19T01:01:27;98742.66;;;17.94;96.81
73297;BME280;61524;50.938;11.396;2022-08-19T01:03:52;98746.47;;;17.93;96.76
73297;BME280;61524;50.938;11.396;2022-08-19T01:06:18;98785.91;;;17.94;96.70
73297;BME280;61524;50.938;11.396;2022-08-19T01:08:44;98789.00;;;17.87;96.82
73297;BME280;61524;50.938;11.396;2022-08-19T01:11:09;98807.63;;;17.89;96.40
73297;BME280;61524;50.938;11.396;2022-08-19T01:13:35;98820.81;;;17.90;96.38
73297;BME280;61524;50.938;11.396;2022-08-19T01:16:07;98820.81;;;17.90;97.01
73297;BME280;61524;50.938;11.396;2022-08-19T01:18:39;98840.16;;;17.83;97.02
73297;BME280;61524;50.938;11.396;2022-08-19T01:21:14;98856.06;;;17.85;96.87
73297;BME280;61524;50.938;11.396;2022-08-19T01:23:43;98870.78;;;17.79;97.13
73297;BME280;61524;50.938;11.396;2022-08-19T01:26:12;98892.88;;;17.81;97.13
73297;BME280;61524;50.938;11.396;2022-08-19T01:28:40;98900.72;;;17.82;97.33
73297;BME280;61524;50.938;11.396;2022-08-19T01:31:09;98930.94;;;17.84;97.04
73297;BME280;61524;50.938;11.396;2022-08-19T01:33:37;98930.63;;;17.86;96.74
73297;BME280;61524;50.938;11.396;2022-08-19T01:36:14;98946.06;;;17.86;96.48
73297;BME280;61524;50.938;11.396;2022-08-19T01:38:42;98954.47;;;17.84;96.99
73297;BME280;61524;50.938;11.396;2022-08-19T01:41:09;98984.69;;;17.86;96.01
73297;BME280;61524;50.938;11.396;2022-08-19T01:43:35;98997.22;;;17.82;96.54
73297;BME280;61524;50.938;11.396;2022-08-19T01:46:02;99013.53;;;17.77;97.10
73297;BME280;61524;50.938;11.396;2022-08-19T01:48:33;99021.25;;;17.83;96.26
73297;BME280;61524;50.938;11.396;2022-08-19T01:50:59;99052.16;;;17.77;96.25
73297;BME280;61524;50.938;11.396;2022-08-19T01:53:25;99050.03;;;17.74;96.72
73297;BME280;61524;50.938;11.396;2022-08-19T01:55:50;99062.88;;;17.82;96.43
73297;BME280;61524;50.938;11.396;2022-08-19T01:58:19;99094.53;;;17.82;96.50
73297;BME280;61524;50.938;11.396;2022-08-19T02:00:46;99101.53;;;17.83;96.38
73297;BME280;61524;50.938;11.396;2022-08-19T02:03:12;99088.81;;;17.83;96.08
73297;BME280;61524;50.938;11.396;2022-08-19T02:05:38;99112.66;;;17.81;95.63
73297;BME280;61524;50.938;11.396;2022-08-19T02:08:04;99093.50;;;17.78;95.77
73297;BME280;61524;50.938;11.396;2022-08-19T02:10:30;99098.31;;;17.81;96.10
73297;BME280;61524;50.938;11.396;2022-08-19T02:12:57;99137.53;;;17.78;96.38
73297;BME280;61524;50.938;11.396;2022-08-19T02:15:22;99146.94;;;17.81;95.96
73297;BME280;61524;50.938;11.396;2022-08-19T02:17:49;99141.84;;;17.79;95.51
73297;BME280;61524;50.938;11.396;2022-08-19T02:20:15;99120.75;;;17.81;95.82
73297;BME280;61524;50.938;11.396;2022-08-19T02:22:41;99133.97;;;17.83;95.69
73297;BME280;61524;50.938;11.396;2022-08-19T02:25:08;99157.50;;;17.82;95.72
73297;BME280;61524;50.938;11.396;2022-08-19T02:27:33;99142.66;;;17.80;95.93
73297;BME280;61524;50.938;11.396;2022-08-19T02:29:59;99137.25;;;17.80;95.67
73297;BME280;61524;50.938;11.396;2022-08-19T02:32:24;99149.16;;;17.79;95.55
73297;BME280;61524;50.938;11.396;2022-08-19T02:34:50;99136.13;;;17.81;95.29
73297;BME280;61524;50.938;11.396;2022-08-19T02:37:16;99137.53;;;17.78;95.45
73297;BME280;61524;50.938;11.396;2022-08-19T02:40:00;99158.66;;;17.76;95.55
73297;BME280;61524;50.938;11.396;2022-08-19T02:42:26;99173.78;;;17.77;95.50
73297;BME280;61524;50.938;11.396;2022-08-19T02:44:51;99172.75;;;17.73;96.12
73297;BME280;61524;50.938;11.396;2022-08-19T02:47:18;99167.56;;;17.77;95.79
73297;BME280;61524;50.938;11.396;2022-08-19T02:49:45;99186.19;;;17.78;96.32
73297;BME280;61524;50.938;11.396;2022-08-19T02:52:10;99211.06;;;17.75;96.12
73297;BME280;61524;50.938;11.396;2022-08-19T02:54:37;99195.16;;;17.74;97.10
73297;BME280;61524;50.938;11.396;2022-08-19T02:57:03;99203.28;;;17.74;96.68
73297;BME280;61524;50.938;11.396;2022-08-19T02:59:32;99198.66;;;17.74;96.42
73297;BME280;61524;50.938;11.396;2022-08-19T03:01:57;99233.00;;;17.74;96.28
73297;BME280;61524;50.938;11.396;2022-08-19T03:04:23;99270.28;;;17.77;96.39
73297;BME280;61524;50.938;11.396;2022-08-19T03:06:49;99273.25;;;17.75;97.07
73297;BME280;61524;50.938;11.396;2022-08-19T03:09:16;99293.25;;;17.74;96.97
73297;BME280;61524;50.938;11.396;2022-08-19T03:11:42;99326.78;;;17.73;97.42
73297;BME280;61524;50.938;11.396;2022-08-19T03:14:09;99333.03;;;17.69;97.53
73297;BME280;61524;50.938;11.396;2022-08-19T03:16:40;99385.22;;;17.64;97.73
73297;BME280;61524;50.938;11.396;2022-08-19T03:19:07;99410.91;;;17.62;98.17
73297;BME280;61524;50.938;11.396;2022-08-19T03:21:33;99439.56;;;17.63;97.78
73297;BME280;61524;50.938;11.396;2022-08-19T03:24:04;99417.38;;;17.66;96.86
73297;BME280;61524;50.938;11.396;2022-08-19T03:26:30;99450.31;;;17.68;97.15
73297;BME280;61524;50.938;11.396;2022-08-19T03:28:56;99459.75;;;17.70;97.31
73297;BME280;61524;50.938;11.396;2022-08-19T03:31:23;99467.03;;;17.75;97.14
73297;BME280;61524;50.938;11.396;2022-08-19T03:33:50;99433.81;;;17.74;97.41
73297;BME280;61524;50.938;11.396;2022-08-19T03:36:21;99463.50;;;17.79;95.92
73297;BME280;61524;50.938;11.396;2022-08-19T03:38:59;99498.88;;;17.83;96.84
73297;BME280;61524;50.938;11.396;2022-08-19T03:41:35;99489.72;;;17.79;97.31
73297;BME280;61524;50.938;11.396;2022-08-19T03:44:02;99500.50;;;17.84;96.27
73297;BME280;61524;50.938;11.396;2022-08-19T03:46:31;99523.41;;;17.92;96.10
73297;BME280;61524;50.938;11.396;2022-08-19T03:48:58;99545.31;;;17.90;96.01
73297;BME280;61524;50.938;11.396;2022-08-19T03:51:28;99528.88;;;17.87;97.44
73297;BME280;61524;50.938;11.396;2022-08-19T03:53:55;99578.38;;;17.82;97.82
73297;BME280;61524;50.938;11.396;2022-08-19T03:56:21;99524.31;;;17.82;97.71
73297;BME280;61524;50.938;11.396;2022-08-19T03:58:47;99576.41;;;17.93;96.75
73297;BME280;61524;50.938;11.396;2022-08-19T04:01:18;99608.06;;;17.87;96.65
73297;BME280;61524;50.938;11.396;2022-08-19T04:03:45;99668.91;;;17.84;97.25
73297;BME280;61524;50.938;11.396;2022-08-19T04:06:19;99698.63;;;17.90;97.07
73297;BME280;61524;50.938;11.396;2022-08-19T04:08:47;99714.84;;;17.90;96.59
73297;BME280;61524;50.938;11.396;2022-08-19T04:11:18;99716.59;;;18.15;96.06
73297;BME280;61524;50.938;11.396;2022-08-19T04:13:45;99738.03;;;18.01;96.21
73297;BME280;61524;50.938;11.396;2022-08-19T04:16:11;99749.19;;;17.89;97.07
73297;BME280;61524;50.938;11.396;2022-08-19T04:18:39;99847.31;;;17.84;97.11
73297;BME280;61524;50.938;11.396;2022-08-19T04:21:06;99692.13;;;17.86;96.95
73297;BME280;61524;50.938;11.396;2022-08-19T04:23:32;99733.50;;;17.86;97.09
73297;BME280;61524;50.938;11.396;2022-08-19T04:25:58;99770.28;;;17.87;97.18
73297;BME280;61524;50.938;11.396;2022-08-19T04:28:24;99775.66;;;17.92;97.20
73297;BME280;61524;50.938;11.396;2022-08-19T04:30:51;99772.13;;;17.97;95.76
73297;BME280;61524;50.938;11.396;2022-08-19T04:33:21;99747.78;;;17.97;96.34
73297;BME280;61524;50.938;11.396;2022-08-19T04:35:49;99725.59;;;18.00;96.86
73297;BME280;61524;50.938;11.396;2022-08-19T04:38:17;99734.00;;;17.98;97.59
73297;BME280;61524;50.938;11.396;2022-08-19T04:40:46;99751.31;;;17.97;97.38
73297;BME280;61524;50.938;11.396;2022-08-19T04:43:32;99670.19;;;17.97;97.56
73297;BME280;61524;50.938;11.396;2022-08-19T04:45:58;99682.34;;;18.00;97.45
73297;BME280;61524;50.938;11.396;2022-08-19T04:48:24;99705.03;;;18.04;96.72
73297;BME280;61524;50.938;11.396;2022-08-19T04:50:54;99609.53;;;18.08;96.52
73297;BME280;61524;50.938;11.396;2022-08-19T04:53:30;99639.00;;;18.10;96.82
73297;BME280;61524;50.938;11.396;2022-08-19T04:55:57;99657.13;;;18.09;96.58
73297;BME280;61524;50.938;11.396;2022-08-19T04:58:24;99735.31;;;18.06;96.87
73297;BME280;61524;50.938;11.396;2022-08-19T05:00:50;99772.34;;;18.05;95.77
73297;BME280;61524;50.938;11.396;2022-08-19T05:03:16;99762.34;;;18.06;95.65
73297;BME280;61524;50.938;11.396;2022-08-19T05:05:43;99758.03;;;18.05;95.79
73297;BME280;61524;50.938;11.396;2022-08-19T05:08:11;99778.06;;;17.99;96.13
73297;BME280;61524;50.938;11.396;2022-08-19T05:10:39;99739.63;;;18.02;95.56
73297;BME280;61524;50.938;11.396;2022-08-19T05:13:05;99791.03;;;18.02;95.39
73297;BME280;61524;50.938;11.396;2022-08-19T05:15:31;99812.94;;;18.00;97.21
73297;BME280;61524;50.938;11.396;2022-08-19T05:17:56;99829.44;;;17.99;97.21
73297;BME280;61524;50.938;11.396;2022-08-19T05:20:41;99744.81;;;17.98;97.22
73297;BME280;61524;50.938;11.396;2022-08-19T05:23:25;99812.41;;;18.03;96.89
73297;BME280;61524;50.938;11.396;2022-08-19T05:25:50;99750.72;;;18.05;96.73
73297;BME280;61524;50.938;11.396;2022-08-19T05:28:17;99798.03;;;18.08;96.17
73297;BME280;61524;50.938;11.396;2022-08-19T05:30:43;99758.28;;;18.08;95.69
73297;BME280;61524;50.938;11.396;2022-08-19T05:33:10;99781.53;;;18.09;95.76
73297;BME280;61524;50.938;11.396;2022-08-19T05:35:40;99792.88;;;18.12;95.37
73297;BME280;61524;50.938;11.396;2022-08-19T05:38:07;99748.53;;;18.07;95.46
73297;BME280;61524;50.938;11.396;2022-08-19T05:40:37;99814.00;;;18.09;95.36
73297;BME280;61524;50.938;11.396;2022-08-19T05:43:06;99777.22;;;18.08;96.17
73297;BME280;61524;50.938;11.396;2022-08-19T05:45:33;99827.50;;;18.09;96.54
73297;BME280;61524;50.938;11.396;2022-08-19T05:48:03;99889.16;;;18.07;96.70
73297;BME280;61524;50.938;11.396;2022-08-19T05:50:28;99850.47;;;18.12;96.35
73297;BME280;61524;50.938;11.396;2022-08-19T05:52:54;99916.47;;;18.11;96.25
73297;BME280;61524;50.938;11.396;2022-08-19T05:55:20;99883.22;;;18.10;96.50
73297;BME280;61524;50.938;11.396;2022-08-19T05:57:47;99926.50;;;18.10;95.95
73297;BME280;61524;50.938;11.396;2022-08-19T06:00:12;99919.47;;;18.15;95.89
73297;BME280;61524;50.938;11.396;2022-08-19T06:02:39;99932.72;;;18.11;96.33
73297;BME280;61524;50.938;11.396;2022-08-19T06:05:05;99964.38;;;18.10;96.54
73297;BME280;61524;50.938;11.396;2022-08-19T06:07:32;99966.53;;;18.14;96.71
73297;BME280;61524;50.938;11.396;2022-08-19T06:09:57;100036.59;;;18.15;96.54
73297;BME280;61524;50.938;11.396;2022-08-19T06:12:23;99981.66;;;18.15;96.65
73297;BME280;61524;50.938;11.396;2022-08-19T06:14:54;100073.06;;;18.13;96.74
73297;BME280;61524;50.938;11.396;2022-08-19T06:17:20;100098.50;;;18.17;96.61
73297;BME280;61524;50.938;11.396;2022-08-19T06:19:50;100089.88;;;18.20;96.27
73297;BME280;61524;50.938;11.396;2022-08-19T06:22:15;100155.84;;;18.24;96.57
73297;BME280;61524;50.938;11.396;2022-08-19T06:24:41;100136.66;;;18.25;96.63
73297;BME280;61524;50.938;11.396;2022-08-19T06:27:07;100159.13;;;18.21;96.31
73297;BME280;61524;50.938;11.396;2022-08-19T06:29:33;100215.38;;;18.29;96.33
73297;BME280;61524;50.938;11.396;2022-08-19T06:32:01;100207.03;;;18.30;96.28
73297;BME280;61524;50.938;11.396;2022-08-19T06:34:29;100222.16;;;18.31;95.73
73297;BME280;61524;50.938;11.396;2022-08-19T06:36:57;100274.13;;;18.33;95.76
73297;BME280;61524;50.938;11.396;2022-08-19T06:39:30;100239.22;;;18.32;96.01
73297;BME280;61524;50.938;11.396;2022-08-19T06:41:57;100291.19;;;18.39;96.20
73297;BME280;61524;50.938;11.396;2022-08-19T06:44:25;100300.66;;;18.42;95.44
73297;BME280;61524;50.938;11.396;2022-08-19T06:46:52;100362.38;;;18.45;96.18
73297;BME280;61524;50.938;11.396;2022-08-19T06:49:18;100364.81;;;18.41;95.00
73297;BME280;61524;50.938;11.396;2022-08-19T06:51:46;100351.00;;;18.43;95.76
73297;BME280;61524;50.938;11.396;2022-08-19T06:54:16;100389.19;;;18.46;95.63
73297;BME280;61524;50.938;11.396;2022-08-19T06:56:43;100372.66;;;18.43;95.15
73297;BME280;61524;50.938;11.396;2022-08-19T06:59:15;100409.72;;;18.42;95.41
73297;BME280;61524;50.938;11.396;2022-08-19T07:01:49;100406.19;;;18.36;95.79
73297;BME280;61524;50.938;11.396;2022-08-19T07:04:18;100418.94;;;18.41;95.08
73297;BME280;61524;50.938;11.396;2022-08-19T07:06:44;100522.59;;;18.42;95.37
73297;BME280;61524;50.938;11.396;2022-08-19T07:09:13;100848.13;;;18.37;95.64
73297;BME280;61524;50.938;11.396;2022-08-19T07:11:52;100599.97;;;18.38;95.39
73297;BME280;61524;50.938;11.396;2022-08-19T07:14:21;100497.41;;;18.41;95.67
73297;BME280;61524;50.938;11.396;2022-08-19T07:16:49;100470.59;;;18.40;95.06
73297;BME280;61524;50.938;11.396;2022-08-19T07:19:16;100434.59;;;18.39;95.03
73297;BME280;61524;50.938;11.396;2022-08-19T07:21:42;100335.84;;;18.42;94.78
73297;BME280;61524;50.938;11.396;2022-08-19T07:24:08;100253.56;;;18.43;94.58
73297;BME280;61524;50.938;11.396;2022-08-19T07:26:41;100118.78;;;18.45;94.02
73297;BME280;61524;50.938;11.396;2022-08-19T07:29:07;100106.06;;;18.45;93.61
73297;BME280;61524;50.938;11.396;2022-08-19T07:31:33;100098.22;;;18.49;93.60
73297;BME280;61524;50.938;11.396;2022-08-19T07:34:03;100172.38;;;18.48;93.84
73297;BME280;61524;50.938;11.396;2022-08-19T07:36:32;100084.97;;;18.52;93.22
73297;BME280;61524;50.938;11.396;2022-08-19T07:39:00;99957.75;;;18.57;92.84
73297;BME280;61524;50.938;11.396;2022-08-19T07:41:28;100007.28;;;18.58;92.88
73297;BME280;61524;50.938;11.396;2022-08-19T07:43:54;99950.69;;;18.56;93.04
73297;BME280;61524;50.938;11.396;2022-08-19T07:46:20;99969.59;;;18.67;92.64
73297;BME280;61524;50.938;11.396;2022-08-19T07:48:46;99941.50;;;18.68;92.05
73297;BME280;61524;50.938;11.396;2022-08-19T07:51:15;99943.09;;;18.74;92.88
73297;BME280;61524;50.938;11.396;2022-08-19T07:53:41;99864.59;;;18.69;92.03
73297;BME280;61524;50.938;11.396;2022-08-19T07:56:08;99846.16;;;18.66;91.84
73297;BME280;61524;50.938;11.396;2022-08-19T07:58:37;99885.97;;;18.65;91.94
73297;BME280;61524;50.938;11.396;2022-08-19T08:01:05;99868.63;;;18.66;92.19
73297;BME280;61524;50.938;11.396;2022-08-19T08:03:33;99858.91;;;18.60;91.64
73297;BME280;61524;50.938;11.396;2022-08-19T08:06:25;99869.47;;;18.56;92.07
73297;BME280;61524;50.938;11.396;2022-08-19T08:09:09;99866.00;;;18.51;92.24
73297;BME280;61524;50.938;11.396;2022-08-19T08:11:54;99848.94;;;18.50;92.20
73297;BME280;61524;50.938;11.396;2022-08-19T08:14:31;99853.53;;;18.55;92.04
73297;BME280;61524;50.938;11.396;2022-08-19T08:16:58;99857.03;;;18.60;91.93
73297;BME280;61524;50.938;11.396;2022-08-19T08:19:25;99873.84;;;18.57;91.77
73297;BME280;61524;50.938;11.396;2022-08-19T08:21:54;99854.91;;;18.52;92.32
73297;BME280;61524;50.938;11.396;2022-08-19T08:24:20;99857.06;;;18.50;92.42
73297;BME280;61524;50.938;11.396;2022-08-19T08:26:46;99854.38;;;18.50;93.04
73297;BME280;61524;50.938;11.396;2022-08-19T08:29:12;99863.28;;;18.56;93.17
73297;BME280;61524;50.938;11.396;2022-08-19T08:31:39;99862.47;;;18.55;92.38
73297;BME280;61524;50.938;11.396;2022-08-19T08:34:05;99856.00;;;18.51;91.67
73297;BME280;61524;50.938;11.396;2022-08-19T08:36:31;100110.38;;;18.56;91.43
73297;BME280;61524;50.938;11.396;2022-08-19T08:38:59;99871.69;;;18.49;91.10
73297;BME280;61524;50.938;11.396;2022-08-19T08:44:00;99990.25;;;18.52;91.25
73297;BME280;61524;50.938;11.396;2022-08-19T08:46:39;99888.75;;;18.50;91.31
73297;BME280;61524;50.938;11.396;2022-08-19T08:49:26;99885.22;;;18.49;91.20
73297;BME280;61524;50.938;11.396;2022-08-19T08:52:04;99873.88;;;18.47;91.86
73297;BME280;61524;50.938;11.396;2022-08-19T08:54:44;99880.13;;;18.43;91.86
73297;BME280;61524;50.938;11.396;2022-08-19T08:57:15;99873.34;;;18.45;91.55
73297;BME280;61524;50.938;11.396;2022-08-19T08:59:47;99879.59;;;18.41;92.20
73297;BME280;61524;50.938;11.396;2022-08-19T09:02:18;99882.00;;;18.47;92.58
73297;BME280;61524;50.938;11.396;2022-08-19T09:04:43;99890.59;;;18.59;90.86
73297;BME280;61524;50.938;11.396;2022-08-19T09:10:11;99898.28;;;18.97;89.84
73297;BME280;61524;50.938;11.396;2022-08-19T09:15:36;100395.31;;;19.40;88.77
73297;BME280;61524;50.938;11.396;2022-08-19T09:18:04;100251.13;;;19.43;86.14
73297;BME280;61524;50.938;11.396;2022-08-19T09:20:32;100164.63;;;19.41;86.16
73297;BME280;61524;50.938;11.396;2022-08-19T09:22:57;100090.34;;;19.48;85.07
73297;BME280;61524;50.938;11.396;2022-08-19T09:25:24;100041.66;;;19.32;84.39
73297;BME280;61524;50.938;11.396;2022-08-19T09:27:51;99931.72;;;19.55;82.96
73297;BME280;61524;50.938;11.396;2022-08-19T09:30:34;99855.75;;;19.65;82.61
73297;BME280;61524;50.938;11.396;2022-08-19T09:33:00;99821.06;;;19.62;81.40
73297;BME280;61524;50.938;11.396;2022-08-19T09:35:27;99820.53;;;19.60;82.92
73297;BME280;61524;50.938;11.396;2022-08-19T09:37:57;99812.72;;;19.59;82.63
73297;BME280;61524;50.938;11.396;2022-08-19T09:40:23;99802.59;;;19.35;82.41
73297;BME280;61524;50.938;11.396;2022-08-19T09:42:49;99789.44;;;19.24;81.72
73297;BME280;61524;50.938;11.396;2022-08-19T09:45:17;99783.56;;;19.40;81.75
73297;BME280;61524;50.938;11.396;2022-08-19T09:47:45;99777.91;;;19.37;81.59
73297;BME280;61524;50.938;11.396;2022-08-19T09:50:12;99770.41;;;19.29;80.43
73297;BME280;61524;50.938;11.396;2022-08-19T09:52:37;99774.31;;;19.18;81.44
73297;BME280;61524;50.938;11.396;2022-08-19T09:55:08;99763.91;;;19.30;81.19
73297;BME280;61524;50.938;11.396;2022-08-19T09:57:34;99762.28;;;19.29;80.84
73297;BME280;61524;50.938;11.396;2022-08-19T10:00:01;99762.03;;;19.25;81.20
73297;BME280;61524;50.938;11.396;2022-08-19T10:02:27;99776.13;;;19.27;81.50
73297;BME280;61524;50.938;11.396;2022-08-19T10:04:52;99758.19;;;19.31;79.79
73297;BME280;61524;50.938;11.396;2022-08-19T10:07:37;99761.09;;;19.40;80.29
73297;BME280;61524;50.938;11.396;2022-08-19T10:10:05;99772.97;;;19.44;79.63
73297;BME280;61524;50.938;11.396;2022-08-19T10:12:32;99764.56;;;19.46;79.40
73297;BME280;61524;50.938;11.396;2022-08-19T10:14:58;99763.03;;;19.34;79.26
73297;BME280;61524;50.938;11.396;2022-08-19T10:17:23;99755.59;;;19.21;80.07
73297;BME280;61524;50.938;11.396;2022-08-19T10:19:50;99762.63;;;19.22;80.33
73297;BME280;61524;50.938;11.396;2022-08-19T10:22:17;99774.31;;;19.18;81.64
73297;BME280;61524;50.938;11.396;2022-08-19T10:24:43;99774.38;;;19.12;80.06
73297;BME280;61524;50.938;11.396;2022-08-19T10:27:08;99760.06;;;19.07;79.80
73297;BME280;61524;50.938;11.396;2022-08-19T10:29:34;99757.63;;;19.05;79.44
73297;BME280;61524;50.938;11.396;2022-08-19T10:32:01;99767.59;;;19.10;79.08
73297;BME280;61524;50.938;11.396;2022-08-19T10:34:28;99740.81;;;19.08;80.49
73297;BME280;61524;50.938;11.396;2022-08-19T10:36:56;99741.84;;;19.12;80.59
73297;BME280;61524;50.938;11.396;2022-08-19T10:39:21;99740.72;;;19.19;80.76
73297;BME280;61524;50.938;11.396;2022-08-19T10:41:47;99738.25;;;19.22;80.01
73297;BME280;61524;50.938;11.396;2022-08-19T10:44:13;99748.44;;;19.30;79.07
73297;BME280;61524;50.938;11.396;2022-08-19T10:46:41;99740.16;;;19.22;78.66
73297;BME280;61524;50.938;11.396;2022-08-19T10:49:09;99728.44;;;19.26;78.57
73297;BME280;61524;50.938;11.396;2022-08-19T10:51:37;99741.81;;;19.41;78.90
73297;BME280;61524;50.938;11.396;2022-08-19T10:54:22;99744.63;;;19.60;77.40
73297;BME280;61524;50.938;11.396;2022-08-19T10:56:47;99743.84;;;19.60;77.31
73297;BME280;61524;50.938;11.396;2022-08-19T10:59:17;99756.56;;;19.83;77.06
73297;BME280;61524;50.938;11.396;2022-08-19T11:01:45;99749.53;;;20.01;76.29
73297;BME280;61524;50.938;11.396;2022-08-19T11:04:11;99750.16;;;20.17;77.70
73297;BME280;61524;50.938;11.396;2022-08-19T11:06:39;99759.91;;;20.37;78.81
73297;BME280;61524;50.938;11.396;2022-08-19T11:09:07;99750.75;;;20.33;77.90
73297;BME280;61524;50.938;11.396;2022-08-19T11:11:33;99776.94;;;20.80;77.77
73297;BME280;61524;50.938;11.396;2022-08-19T11:14:09;99774.13;;;21.04;76.16
73297;BME280;61524;50.938;11.396;2022-08-19T11:16:35;99773.97;;;20.95;76.27
73297;BME280;61524;50.938;11.396;2022-08-19T11:19:02;99784.28;;;21.12;75.12
73297;BME280;61524;50.938;11.396;2022-08-19T11:21:33;99769.31;;;21.15;74.89
73297;BME280;61524;50.938;11.396;2022-08-19T11:24:12;100124.63;;;21.33;74.94
73297;BME280;61524;50.938;11.396;2022-08-19T11:26:39;100011.13;;;21.77;72.71
73297;BME280;61524;50.938;11.396;2022-08-19T11:29:07;100006.44;;;21.63;73.83
73297;BME280;61524;50.938;11.396;2022-08-19T11:31:37;99942.63;;;21.56;73.25
73297;BME280;61524;50.938;11.396;2022-08-19T11:34:06;99840.09;;;21.56;73.44
73297;BME280;61524;50.938;11.396;2022-08-19T11:36:32;99881.13;;;21.73;72.72
73297;BME280;61524;50.938;11.396;2022-08-19T11:38:59;99884.97;;;21.40;73.51
73297;BME280;61524;50.938;11.396;2022-08-19T11:41:25;99856.84;;;21.77;72.89
73297;BME280;61524;50.938;11.396;2022-08-19T11:43:51;99860.69;;;21.76;72.28
73297;BME280;61524;50.938;11.396;2022-08-19T11:46:19;99808.50;;;22.01;70.16
73297;BME280;61524;50.938;11.396;2022-08-19T11:48:45;99777.97;;;22.18;71.57
73297;BME280;61524;50.938;11.396;2022-08-19T11:51:14;99749.88;;;22.32;71.04
73297;BME280;61524;50.938;11.396;2022-08-19T11:53:41;99728.19;;;21.77;71.76
73297;BME280;61524;50.938;11.396;2022-08-19T11:56:08;99741.94;;;22.21;71.26
73297;BME280;61524;50.938;11.396;2022-08-19T11:58:34;99753.63;;;22.58;69.97
73297;BME280;61524;50.938;11.396;2022-08-19T12:01:00;99752.84;;;22.58;71.07
73297;BME280;61524;50.938;11.396;2022-08-19T12:03:25;99729.00;;;22.41;69.84
73297;BME280;61524;50.938;11.396;2022-08-19T12:05:51;99740.94;;;22.53;70.12
73297;BME280;61524;50.938;11.396;2022-08-19T12:08:17;99721.59;;;22.19;71.37
73297;BME280;61524;50.938;11.396;2022-08-19T12:10:44;99711.22;;;22.43;70.49
73297;BME280;61524;50.938;11.396;2022-08-19T12:13:11;99689.56;;;22.02;69.60
73297;BME280;61524;50.938;11.396;2022-08-19T12:15:45;99706.47;;;21.99;70.72
73297;BME280;61524;50.938;11.396;2022-08-19T12:18:10;99700.31;;;22.21;70.20
73297;BME280;61524;50.938;11.396;2022-08-19T12:20:38;100491.25;;;22.18;68.79
73297;BME280;61524;50.938;11.396;2022-08-19T12:23:05;99810.59;;;22.32;68.61
73297;BME280;61524;50.938;11.396;2022-08-19T12:25:31;99667.41;;;22.53;67.93
73297;BME280;61524;50.938;11.396;2022-08-19T12:27:58;99681.31;;;22.97;68.51
73297;BME280;61524;50.938;11.396;2022-08-19T12:30:23;99690.72;;;22.91;68.58
73297;BME280;61524;50.938;11.396;2022-08-19T12:32:49;99699.31;;;23.07;69.37
73297;BME280;61524;50.938;11.396;2022-08-19T12:35:16;99666.16;;;22.60;68.22
73297;BME280;61524;50.938;11.396;2022-08-19T12:37:42;99718.34;;;22.75;68.77
73297;BME280;61524;50.938;11.396;2022-08-19T12:40:10;99707.31;;;22.36;68.34
73297;BME280;61524;50.938;11.396;2022-08-19T12:42:38;99707.63;;;22.34;68.16
73297;BME280;61524;50.938;11.396;2022-08-19T12:45:08;99633.66;;;21.96;68.78
73297;BME280;61524;50.938;11.396;2022-08-19T12:47:34;99617.97;;;22.15;66.83
73297;BME280;61524;50.938;11.396;2022-08-19T12:50:00;99606.13;;;21.97;63.80
73297;BME280;61524;50.938;11.396;2022-08-19T12:52:26;99611.31;;;22.08;63.09
73297;BME280;61524;50.938;11.396;2022-08-19T12:54:53;99615.88;;;22.12;62.02
73297;BME280;61524;50.938;11.396;2022-08-19T12:57:19;99605.22;;;21.88;61.78
73297;BME280;61524;50.938;11.396;2022-08-19T12:59:44;99618.88;;;22.11;61.19